Latest Coastal Weather Observations for Point Stuart

IDD60701

Issued at 8:05 am CST Monday 24 November 2014 (issued every 10 minutes, with the page automatically refreshed every 10 minutes)

About coastal observations | Map of coastal stations | Coastal observations for NT | Marine services | Other Formats
Station Details ID: 014254 Name: POINT STUART Lat: -12.24 Lon: 131.88 Height: 1.0 m
Data from the previous 72 hours. | See also: Recent months for locations in Northern Territory
Date/Time
CST
Temp

°C
Wind Pressure Rain
since 9am
mm
Weather Cloud Vis
km
Sea
Height
m
Swell
Dir
 
Speed
knots
Gust
knots
hPa Trend Height
m
Period
s
Dir
24/08:00am 29.8 S 3 5 1010.3 - 0.0 - - - - - - -
24/07:30am 28.2 SSE 4 5 1010.1 - 0.0 - - - - - - -
24/07:00am 27.2 SSE 4 5 1010.0 - 0.0 - - - - - - -
24/06:30am 26.1 SE 3 4 1009.9 - 0.0 - - - - - - -
24/06:00am 26.3 CALM 0 0 1009.6 - 0.0 - - - - - - -
24/05:30am 26.6 SSE 4 6 1009.4 - 0.0 - - - - - - -
24/05:00am 26.9 SE 4 5 1009.4 - 0.0 - - - - - - -
24/04:30am 27.1 SSE 4 5 1009.2 - 0.0 - - - - - - -
24/04:00am 27.2 S 5 6 1009.2 - 0.0 - - - - - - -
24/03:30am 27.6 S 4 5 1009.1 - 0.0 - - - - - - -
24/03:00am 27.6 S 4 5 1009.1 - 0.0 - - - - - - -
24/02:30am 27.9 CALM 0 3 1009.1 - 0.0 - - - - - - -
24/02:00am 28.2 N 3 5 1009.3 - 0.0 - - - - - - -
24/01:30am 28.3 NNE 5 8 1009.4 - 0.0 - - - - - - -
24/01:00am 28.4 NNE 6 11 1009.2 - 0.0 - - - - - - -
24/12:30am 28.4 NNE 6 9 1009.3 - 0.0 - - - - - - -
24/12:00am 28.7 NNE 6 9 1009.4 - 0.0 - - - - - - -
 
Date/Time
CST
Temp

°C
Wind Pressure Rain
since 9am
mm
Weather Cloud Vis
km
Sea
Height
m
Swell
Dir
 
Speed
knots
Gust
knots
hPa Trend Height
m
Period
s
Dir
23/11:30pm 29.1 NNE 8 11 1009.4 - 0.0 - - - - - - -
23/11:00pm 29.3 NE 9 13 1009.4 - 0.0 - - - - - - -
23/10:30pm 29.4 NNE 7 11 1009.3 - 0.0 - - - - - - -
23/10:00pm 29.6 NNE 7 12 1009.2 - 0.0 - - - - - - -
23/09:30pm 29.7 N 6 12 1009.2 - 0.0 - - - - - - -
23/09:00pm 29.7 N 7 12 1008.9 - 0.0 - - - - - - -
23/08:30pm 29.7 N 7 11 1008.8 - 0.0 - - - - - - -
23/08:00pm 29.8 NNW 7 11 1008.3 - 0.0 - - - - - - -
23/07:30pm 30.0 N 7 11 1007.7 - 0.0 - - - - - - -
23/07:00pm 30.4 NNW 8 13 1007.4 - 0.0 - - - - - - -
23/06:30pm 31.3 N 9 15 1007.0 - 0.0 - - - - - - -
23/06:00pm 32.8 N 9 14 1006.8 - 0.0 - - - - - - -
23/05:30pm 33.7 N 8 13 1006.6 - 0.0 - - - - - - -
23/05:00pm 33.8 NNW 8 11 1006.5 - 0.0 - - - - - - -
23/04:30pm 34.3 NNW 8 13 1006.8 - 0.0 - - - - - - -
23/04:00pm 34.9 NNW 9 14 1007.0 - 0.0 - - - - - - -
23/03:30pm 35.2 NNW 9 14 1007.2 - 0.0 - - - - - - -
23/03:00pm 35.1 N 8 13 1007.6 - 0.0 - - - - - - -
23/02:30pm 35.4 N 7 11 1008.0 - 0.0 - - - - - - -
23/02:00pm 34.7 N 8 12 1008.4 - 0.0 - - - - - - -
23/01:30pm 34.4 N 8 13 1009.0 - 0.0 - - - - - - -
23/01:00pm 34.6 N 8 11 1009.6 - 0.0 - - - - - - -
23/12:30pm 33.4 N 8 12 1010.1 - 0.0 - - - - - - -
23/12:00pm 33.9 NNE 7 15 1010.6 - 0.0 - - - - - - -
23/11:30am 33.7 NNE 8 15 1011.1 - 0.0 - - - - - - -
23/11:00am 33.2 NE 9 13 1011.6 - 0.0 - - - - - - -
23/10:30am 32.6 NE 9 15 1011.6 - 0.0 - - - - - - -
23/10:00am 31.9 ENE 9 14 1011.7 - 0.0 - - - - - - -
23/09:30am 31.4 ENE 9 14 1011.8 - 0.0 - - - - - - -
23/09:00am 30.7 E 9 13 1011.7 - 0.0 - - - - - - -
23/08:30am 30.2 ESE 8 11 1011.7 - 0.0 - - - - - - -
23/08:00am 28.6 ESE 7 9 1011.6 - 0.0 - - - - - - -
23/07:30am 27.4 SE 6 8 1011.6 - 0.0 - - - - - - -
23/07:00am 26.7 ESE 7 8 1011.3 - 0.0 - - - - - - -
23/06:30am 26.5 SE 6 7 1011.0 - 0.0 - - - - - - -
23/05:30am 25.5 ESE 4 6 1010.3 - 0.0 - - - - - - -
23/05:00am 25.5 SE 3 4 1010.0 - 0.0 - - - - - - -
23/04:30am 25.7 CALM 0 0 1009.9 - 0.0 - - - - - - -
23/04:00am 25.9 CALM 0 0 1009.8 - 0.0 - - - - - - -
23/03:30am 25.7 SSE 3 4 1009.8 - 0.0 - - - - - - -
23/03:00am 25.6 N 1 4 1009.6 - 0.0 - - - - - - -
23/02:30am 25.6 CALM 0 0 1009.7 - 0.0 - - - - - - -
23/02:00am 26.0 CALM 0 0 1009.9 - 0.0 - - - - - - -
23/01:30am 26.4 CALM 0 0 1010.0 - 0.0 - - - - - - -
23/01:00am 26.9 CALM 0 0 1010.0 - 0.0 - - - - - - -
23/12:30am 27.6 CALM 0 0 1010.1 - 0.0 - - - - - - -
23/12:00am 28.4 NNE 3 4 1010.3 - 0.0 - - - - - - -
 
Date/Time
CST
Temp

°C
Wind Pressure Rain
since 9am
mm
Weather Cloud Vis
km
Sea
Height
m
Swell
Dir
 
Speed
knots
Gust
knots
hPa Trend Height
m
Period
s
Dir
22/11:30pm 29.0 NNE 5 7 1010.4 - 0.0 - - - - - - -
22/11:00pm 29.3 NNE 6 9 1010.4 - 0.0 - - - - - - -
22/10:30pm 29.4 NNE 5 9 1010.4 - 0.0 - - - - - - -
22/10:00pm 29.7 N 5 8 1010.1 - 0.0 - - - - - - -
22/09:30pm 29.7 N 7 11 1010.1 - 0.0 - - - - - - -
22/09:00pm 29.6 N 7 13 1009.7 - 0.0 - - - - - - -
22/08:30pm 29.7 N 8 14 1009.5 - 0.0 - - - - - - -
22/08:00pm 29.9 N 8 15 1009.2 - 0.0 - - - - - - -
22/07:30pm 29.9 N 8 13 1008.9 - 0.0 - - - - - - -
22/07:00pm 30.1 N 8 11 1008.7 - 0.0 - - - - - - -
22/06:30pm 30.4 N 8 11 1008.3 - 0.0 - - - - - - -
22/06:00pm 30.9 N 9 15 1007.8 - 0.0 - - - - - - -
22/05:30pm 32.9 N 8 12 1007.4 - 0.0 - - - - - - -
22/05:00pm 33.2 N 9 14 1007.2 - 0.0 - - - - - - -
22/04:30pm 33.5 N 8 13 1007.1 - 0.0 - - - - - - -
22/04:00pm 34.4 N 9 14 1007.3 - 0.0 - - - - - - -
22/03:30pm 33.8 NNW 10 14 1007.4 - 0.0 - - - - - - -
22/03:00pm 33.4 NNW 10 15 1008.0 - 0.0 - - - - - - -
22/02:30pm 34.4 NNW 9 14 1008.4 - 0.0 - - - - - - -
22/02:00pm 34.3 NNW 9 13 1008.9 - 0.0 - - - - - - -
22/01:30pm 34.5 N 9 14 1009.5 - 0.0 - - - - - - -
22/01:00pm 33.2 N 9 14 1009.8 - 0.0 - - - - - - -
22/12:30pm 34.6 NNW 9 15 1010.3 - 0.0 - - - - - - -
22/12:00pm 34.5 NNE 5 9 1010.6 - 0.0 - - - - - - -
22/11:30am 34.7 NE 7 12 1011.1 - 0.0 - - - - - - -
22/11:00am 33.2 NE 8 12 1011.6 - 0.0 - - - - - - -
22/10:30am 32.3 ENE 8 12 1011.9 - 0.0 - - - - - - -
22/10:00am 32.7 ENE 7 11 1012.2 - 0.0 - - - - - - -
22/09:30am 32.4 NE 7 12 1012.1 - 0.0 - - - - - - -
22/09:00am 31.0 E 6 9 1012.0 - 0.0 - - - - - - -
22/08:30am 30.2 ENE 5 8 1011.8 - 0.0 - - - - - - -
22/08:00am 29.1 SE 5 8 1011.5 - 0.0 - - - - - - -
22/07:30am 27.3 ESE 6 8 1011.3 - 0.0 - - - - - - -
22/07:00am 26.8 SE 6 7 1010.9 - 0.0 - - - - - - -
22/06:30am 26.8 CALM 0 0 1010.7 - 0.0 - - - - - - -
22/06:00am 27.2 NNE 3 4 1010.1 - 0.0 - - - - - - -
22/05:30am 27.4 NNE 4 5 1010.0 - 0.0 - - - - - - -
22/05:00am 27.7 NNE 4 6 1009.7 - 0.0 - - - - - - -
22/04:30am 27.5 NNE 3 5 1009.1 - 0.0 - - - - - - -
22/04:00am 27.8 N 4 5 1008.8 - 0.0 - - - - - - -
22/03:30am 28.0 N 3 5 1008.7 - 0.0 - - - - - - -
22/03:00am 28.4 N 4 6 1008.9 - 0.0 - - - - - - -
22/02:30am 28.7 NNW 4 6 1008.8 - 0.0 - - - - - - -
22/02:00am 28.7 NNW 4 8 1009.0 - 0.0 - - - - - - -
22/01:30am 28.4 NNW 5 7 1009.2 - 0.0 - - - - - - -
22/01:00am 28.6 NW 6 9 1009.3 - 0.0 - - - - - - -
22/12:30am 28.5 NW 6 7 1009.8 - 0.0 - - - - - - -
22/12:00am 28.4 NNW 4 5 1010.0 - 0.0 - - - - - - -
 
Date/Time
CST
Temp

°C
Wind Pressure Rain
since 9am
mm
Weather Cloud Vis
km
Sea
Height
m
Swell
Dir
 
Speed
knots
Gust
knots
hPa Trend Height
m
Period
s
Dir
21/11:30pm 29.0 N 4 5 1009.9 - 0.0 - - - - - - -
21/11:00pm 29.3 N 4 6 1009.9 - 0.0 - - - - - - -
21/10:30pm 29.4 N 4 5 1009.8 - 0.0 - - - - - - -
21/10:00pm 29.8 N 5 9 1009.8 - 0.0 - - - - - - -
21/09:30pm 29.7 NNW 5 11 1009.5 - 0.0 - - - - - - -
21/09:00pm 29.7 N 6 9 1009.1 - 0.0 - - - - - - -
21/08:30pm 29.6 N 6 9 1008.6 - 0.0 - - - - - - -
21/08:00pm 29.7 N 6 10 1008.5 - 0.0 - - - - - - -
21/07:30pm 29.8 N 6 9 1008.2 - 0.0 - - - - - - -
21/07:00pm 30.1 N 5 9 1008.1 - 0.0 - - - - - - -
21/06:30pm 30.7 NNW 6 9 1007.9 - 0.0 - - - - - - -
21/06:00pm 31.6 NNW 7 10 1007.8 - 0.0 - - - - - - -
21/05:30pm 32.6 NNW 7 11 1007.6 - 0.0 - - - - - - -
21/05:00pm 32.8 N 8 11 1007.6 - 0.0 - - - - - - -
21/04:30pm 33.0 NNW 8 11 1007.5 - 0.0 - - - - - - -
21/04:00pm 34.1 N 8 13 1007.5 - 0.0 - - - - - - -
21/03:30pm 34.0 N 9 14 1007.7 - 0.0 - - - - - - -
21/03:00pm 34.6 N 8 13 1008.0 - 0.0 - - - - - - -
21/02:30pm 34.9 N 8 14 1008.5 - 0.0 - - - - - - -
21/02:00pm 34.0 N 8 13 1008.9 - 0.0 - - - - - - -
21/01:30pm 34.1 N 8 15 1009.2 - 0.0 - - - - - - -
21/01:00pm 32.9 N 10 16 1009.9 - 0.0 - - - - - - -
21/12:30pm 33.4 NNE 9 15 1010.3 - 0.0 - - - - - - -
21/12:00pm 33.9 NE 10 15 1010.5 - 0.0 - - - - - - -
21/11:30am 33.7 NE 10 14 1011.1 - 0.0 - - - - - - -
21/11:00am 32.3 NNE 10 15 1011.3 - 0.0 - - - - - - -
21/10:30am 32.6 NNE 9 14 1011.7 - 0.0 - - - - - - -
21/10:00am 31.8 ENE 8 13 1011.8 - 0.0 - - - - - - -
21/09:30am 31.8 ENE 8 14 1011.8 - 0.0 - - - - - - -
21/09:00am 32.2 ENE 7 11 1011.9 - 0.0 - - - - - - -
21/08:30am 31.6 NE 6 9 1011.5 - 0.0 - - - - - - -

Other Formats:

Comma delimited format used in spreadsheet applications
http://www.bom.gov.au/fwo/IDD60701/IDD60701.94127.axf

JavaScript Object Notation format (JSON) in row-major order
http://www.bom.gov.au/fwo/IDD60701/IDD60701.94127.json